sensor_id;sensor_type;location;lat;lon;timestamp;temperature;humidity
997;DHT22;487;50.126;8.698;2024-02-16T00:01:50;13.60;99.90
997;DHT22;487;50.126;8.698;2024-02-16T00:04:18;13.60;99.90
997;DHT22;487;50.126;8.698;2024-02-16T00:06:46;13.60;99.90
997;DHT22;487;50.126;8.698;2024-02-16T00:09:15;13.60;99.90
997;DHT22;487;50.126;8.698;2024-02-16T00:14:15;13.60;99.90
997;DHT22;487;50.126;8.698;2024-02-16T00:16:43;13.60;99.90
997;DHT22;487;50.126;8.698;2024-02-16T00:19:11;13.60;99.90
997;DHT22;487;50.126;8.698;2024-02-16T00:21:39;13.50;99.90
997;DHT22;487;50.126;8.698;2024-02-16T00:24:08;13.50;99.90
997;DHT22;487;50.126;8.698;2024-02-16T00:26:36;13.50;99.90
997;DHT22;487;50.126;8.698;2024-02-16T00:29:06;13.50;99.90
997;DHT22;487;50.126;8.698;2024-02-16T00:31:35;13.50;99.90
997;DHT22;487;50.126;8.698;2024-02-16T00:34:03;13.50;99.90
997;DHT22;487;50.126;8.698;2024-02-16T00:36:31;13.50;99.90
997;DHT22;487;50.126;8.698;2024-02-16T00:39:00;13.50;99.90
997;DHT22;487;50.126;8.698;2024-02-16T00:41:30;13.50;99.90
997;DHT22;487;50.126;8.698;2024-02-16T00:43:58;13.50;99.90
997;DHT22;487;50.126;8.698;2024-02-16T00:46:26;13.50;99.90
997;DHT22;487;50.126;8.698;2024-02-16T00:48:55;13.50;99.90
997;DHT22;487;50.126;8.698;2024-02-16T00:51:23;13.50;99.90
997;DHT22;487;50.126;8.698;2024-02-16T00:53:53;13.50;99.90
997;DHT22;487;50.126;8.698;2024-02-16T00:56:21;13.50;99.90
997;DHT22;487;50.126;8.698;2024-02-16T00:58:48;13.50;99.90
997;DHT22;487;50.126;8.698;2024-02-16T01:01:16;13.60;99.90
997;DHT22;487;50.126;8.698;2024-02-16T01:03:44;13.50;99.90
997;DHT22;487;50.126;8.698;2024-02-16T01:06:13;13.50;99.90
997;DHT22;487;50.126;8.698;2024-02-16T01:08:41;13.50;99.90
997;DHT22;487;50.126;8.698;2024-02-16T01:11:09;13.50;99.90
997;DHT22;487;50.126;8.698;2024-02-16T01:13:38;13.40;99.90
997;DHT22;487;50.126;8.698;2024-02-16T01:16:06;13.40;99.90
997;DHT22;487;50.126;8.698;2024-02-16T01:18:34;13.40;99.90
997;DHT22;487;50.126;8.698;2024-02-16T01:21:05;13.40;99.90
997;DHT22;487;50.126;8.698;2024-02-16T01:23:34;13.30;99.90
997;DHT22;487;50.126;8.698;2024-02-16T01:26:02;13.30;99.90
997;DHT22;487;50.126;8.698;2024-02-16T01:28:30;13.30;99.90
997;DHT22;487;50.126;8.698;2024-02-16T01:30:58;13.30;99.90
997;DHT22;487;50.126;8.698;2024-02-16T01:33:26;13.30;99.90
997;DHT22;487;50.126;8.698;2024-02-16T01:38:24;13.30;99.90
997;DHT22;487;50.126;8.698;2024-02-16T01:40:54;13.40;99.90
997;DHT22;487;50.126;8.698;2024-02-16T01:43:22;13.40;99.90
997;DHT22;487;50.126;8.698;2024-02-16T01:45:50;13.40;99.90
997;DHT22;487;50.126;8.698;2024-02-16T01:48:18;13.30;99.90
997;DHT22;487;50.126;8.698;2024-02-16T01:50:48;13.30;99.90
997;DHT22;487;50.126;8.698;2024-02-16T01:53:17;13.30;99.90
997;DHT22;487;50.126;8.698;2024-02-16T01:55:46;13.30;99.90
997;DHT22;487;50.126;8.698;2024-02-16T01:58:15;13.30;99.90
997;DHT22;487;50.126;8.698;2024-02-16T02:00:43;13.30;99.90
997;DHT22;487;50.126;8.698;2024-02-16T02:03:12;13.30;99.90
997;DHT22;487;50.126;8.698;2024-02-16T02:05:45;13.30;99.90
997;DHT22;487;50.126;8.698;2024-02-16T02:08:14;13.30;99.90
997;DHT22;487;50.126;8.698;2024-02-16T02:10:42;13.40;99.90
997;DHT22;487;50.126;8.698;2024-02-16T02:13:10;13.40;99.90
997;DHT22;487;50.126;8.698;2024-02-16T02:15:39;13.40;99.90
997;DHT22;487;50.126;8.698;2024-02-16T02:18:07;13.40;99.90
997;DHT22;487;50.126;8.698;2024-02-16T02:20:35;13.40;99.90
997;DHT22;487;50.126;8.698;2024-02-16T02:23:04;13.40;99.90
997;DHT22;487;50.126;8.698;2024-02-16T02:25:32;13.30;99.90
997;DHT22;487;50.126;8.698;2024-02-16T02:28:01;13.40;99.90
997;DHT22;487;50.126;8.698;2024-02-16T02:30:29;13.40;99.90
997;DHT22;487;50.126;8.698;2024-02-16T02:32:57;13.40;99.90
997;DHT22;487;50.126;8.698;2024-02-16T02:35:25;13.40;99.90
997;DHT22;487;50.126;8.698;2024-02-16T02:37:53;13.40;99.90
997;DHT22;487;50.126;8.698;2024-02-16T02:40:22;13.40;99.90
997;DHT22;487;50.126;8.698;2024-02-16T02:42:51;13.40;99.90
997;DHT22;487;50.126;8.698;2024-02-16T02:45:19;13.30;99.90
997;DHT22;487;50.126;8.698;2024-02-16T02:47:46;13.40;99.90
997;DHT22;487;50.126;8.698;2024-02-16T02:50:15;13.40;99.90
997;DHT22;487;50.126;8.698;2024-02-16T02:52:43;13.30;99.90
997;DHT22;487;50.126;8.698;2024-02-16T02:55:12;13.30;99.90
997;DHT22;487;50.126;8.698;2024-02-16T02:57:41;13.30;99.90
997;DHT22;487;50.126;8.698;2024-02-16T03:00:10;13.30;99.90
997;DHT22;487;50.126;8.698;2024-02-16T03:02:39;13.20;99.90
997;DHT22;487;50.126;8.698;2024-02-16T03:05:08;13.20;99.90
997;DHT22;487;50.126;8.698;2024-02-16T03:07:36;13.20;99.90
997;DHT22;487;50.126;8.698;2024-02-16T03:10:06;13.20;99.90
997;DHT22;487;50.126;8.698;2024-02-16T03:12:36;13.20;99.90
997;DHT22;487;50.126;8.698;2024-02-16T03:15:06;13.20;99.90
997;DHT22;487;50.126;8.698;2024-02-16T03:17:35;13.20;99.90
997;DHT22;487;50.126;8.698;2024-02-16T03:20:05;13.10;99.90
997;DHT22;487;50.126;8.698;2024-02-16T03:22:34;13.10;99.90
997;DHT22;487;50.126;8.698;2024-02-16T03:25:02;13.10;99.90
997;DHT22;487;50.126;8.698;2024-02-16T03:27:31;13.10;99.90
997;DHT22;487;50.126;8.698;2024-02-16T03:29:59;13.10;99.90
997;DHT22;487;50.126;8.698;2024-02-16T03:32:31;13.10;99.90
997;DHT22;487;50.126;8.698;2024-02-16T03:37:27;13.10;99.90
997;DHT22;487;50.126;8.698;2024-02-16T03:39:55;13.10;99.90
997;DHT22;487;50.126;8.698;2024-02-16T03:42:23;13.10;99.90
997;DHT22;487;50.126;8.698;2024-02-16T03:44:51;13.10;99.90
997;DHT22;487;50.126;8.698;2024-02-16T03:47:18;13.10;99.90
997;DHT22;487;50.126;8.698;2024-02-16T03:49:48;13.10;99.90
997;DHT22;487;50.126;8.698;2024-02-16T03:52:16;13.00;99.90
997;DHT22;487;50.126;8.698;2024-02-16T03:54:43;13.00;99.90
997;DHT22;487;50.126;8.698;2024-02-16T03:57:14;13.10;99.90
997;DHT22;487;50.126;8.698;2024-02-16T03:59:43;13.10;99.90
997;DHT22;487;50.126;8.698;2024-02-16T04:02:11;13.10;99.90
997;DHT22;487;50.126;8.698;2024-02-16T04:04:40;13.10;99.90
997;DHT22;487;50.126;8.698;2024-02-16T04:07:09;13.10;99.90
997;DHT22;487;50.126;8.698;2024-02-16T04:09:37;13.10;99.90
997;DHT22;487;50.126;8.698;2024-02-16T04:12:06;13.10;99.90
997;DHT22;487;50.126;8.698;2024-02-16T04:17:02;13.20;99.90
997;DHT22;487;50.126;8.698;2024-02-16T04:19:29;13.20;99.90
997;DHT22;487;50.126;8.698;2024-02-16T04:21:58;13.20;99.90
997;DHT22;487;50.126;8.698;2024-02-16T04:24:28;13.20;99.90
997;DHT22;487;50.126;8.698;2024-02-16T04:26:56;13.20;99.90
997;DHT22;487;50.126;8.698;2024-02-16T04:39:17;13.00;99.90
997;DHT22;487;50.126;8.698;2024-02-16T04:41:47;13.00;99.90
997;DHT22;487;50.126;8.698;2024-02-16T04:44:16;13.00;99.90
997;DHT22;487;50.126;8.698;2024-02-16T04:46:44;13.10;99.90
997;DHT22;487;50.126;8.698;2024-02-16T04:49:11;13.10;99.90
997;DHT22;487;50.126;8.698;2024-02-16T04:51:40;13.10;99.90
997;DHT22;487;50.126;8.698;2024-02-16T04:54:08;13.10;99.90
997;DHT22;487;50.126;8.698;2024-02-16T04:56:36;13.10;99.90
997;DHT22;487;50.126;8.698;2024-02-16T04:59:05;13.10;99.90
997;DHT22;487;50.126;8.698;2024-02-16T05:01:33;13.10;99.90
997;DHT22;487;50.126;8.698;2024-02-16T05:04:01;13.10;99.90
997;DHT22;487;50.126;8.698;2024-02-16T05:06:29;13.10;99.90
997;DHT22;487;50.126;8.698;2024-02-16T05:08:57;13.00;99.90
997;DHT22;487;50.126;8.698;2024-02-16T05:11:25;13.10;99.90
997;DHT22;487;50.126;8.698;2024-02-16T05:13:56;13.00;99.90
997;DHT22;487;50.126;8.698;2024-02-16T05:16:26;13.00;99.90
997;DHT22;487;50.126;8.698;2024-02-16T05:18:55;13.00;99.90
997;DHT22;487;50.126;8.698;2024-02-16T05:21:24;13.00;99.90
997;DHT22;487;50.126;8.698;2024-02-16T05:23:52;13.00;99.90
997;DHT22;487;50.126;8.698;2024-02-16T05:26:20;13.10;99.90
997;DHT22;487;50.126;8.698;2024-02-16T05:28:47;13.10;99.90
997;DHT22;487;50.126;8.698;2024-02-16T05:31:17;13.00;99.90
997;DHT22;487;50.126;8.698;2024-02-16T05:33:48;13.00;99.90
997;DHT22;487;50.126;8.698;2024-02-16T05:36:17;13.00;99.90
997;DHT22;487;50.126;8.698;2024-02-16T05:38:47;13.10;99.90
997;DHT22;487;50.126;8.698;2024-02-16T05:41:15;13.00;99.90
997;DHT22;487;50.126;8.698;2024-02-16T05:43:44;13.00;99.90
997;DHT22;487;50.126;8.698;2024-02-16T05:46:13;13.10;99.90
997;DHT22;487;50.126;8.698;2024-02-16T05:48:41;13.10;99.90
997;DHT22;487;50.126;8.698;2024-02-16T05:51:11;13.00;99.90
997;DHT22;487;50.126;8.698;2024-02-16T05:53:40;13.00;99.90
997;DHT22;487;50.126;8.698;2024-02-16T05:56:09;13.00;99.90
997;DHT22;487;50.126;8.698;2024-02-16T05:58:37;13.00;99.90
997;DHT22;487;50.126;8.698;2024-02-16T06:01:05;13.00;99.90
997;DHT22;487;50.126;8.698;2024-02-16T06:03:33;12.90;99.90
997;DHT22;487;50.126;8.698;2024-02-16T06:06:01;13.00;99.90
997;DHT22;487;50.126;8.698;2024-02-16T06:08:30;13.00;99.90
997;DHT22;487;50.126;8.698;2024-02-16T06:10:58;12.90;99.90
997;DHT22;487;50.126;8.698;2024-02-16T06:13:28;12.90;99.90
997;DHT22;487;50.126;8.698;2024-02-16T06:18:25;12.90;99.90
997;DHT22;487;50.126;8.698;2024-02-16T06:20:56;12.90;99.90
997;DHT22;487;50.126;8.698;2024-02-16T06:23:24;12.90;99.90
997;DHT22;487;50.126;8.698;2024-02-16T06:25:53;12.90;99.90
997;DHT22;487;50.126;8.698;2024-02-16T06:28:21;12.90;99.90
997;DHT22;487;50.126;8.698;2024-02-16T06:30:49;12.90;99.90
997;DHT22;487;50.126;8.698;2024-02-16T06:33:17;13.00;99.90
997;DHT22;487;50.126;8.698;2024-02-16T06:35:45;13.00;99.90
997;DHT22;487;50.126;8.698;2024-02-16T06:38:14;13.00;99.90
997;DHT22;487;50.126;8.698;2024-02-16T06:40:42;13.10;99.90
997;DHT22;487;50.126;8.698;2024-02-16T06:43:12;13.10;99.90
997;DHT22;487;50.126;8.698;2024-02-16T06:45:39;13.00;99.90
997;DHT22;487;50.126;8.698;2024-02-16T06:48:07;13.10;99.90
997;DHT22;487;50.126;8.698;2024-02-16T06:50:35;13.10;99.90
997;DHT22;487;50.126;8.698;2024-02-16T06:53:04;13.10;99.90
997;DHT22;487;50.126;8.698;2024-02-16T06:55:32;13.10;99.90
997;DHT22;487;50.126;8.698;2024-02-16T06:58:00;13.10;99.90
997;DHT22;487;50.126;8.698;2024-02-16T07:00:29;13.10;99.90
997;DHT22;487;50.126;8.698;2024-02-16T07:05:25;13.10;99.90
997;DHT22;487;50.126;8.698;2024-02-16T07:07:54;13.00;99.90
997;DHT22;487;50.126;8.698;2024-02-16T07:10:22;13.10;99.90
997;DHT22;487;50.126;8.698;2024-02-16T07:12:50;13.10;99.90
997;DHT22;487;50.126;8.698;2024-02-16T07:15:18;13.10;99.90
997;DHT22;487;50.126;8.698;2024-02-16T07:17:48;13.10;99.90
997;DHT22;487;50.126;8.698;2024-02-16T07:20:16;13.10;99.90
997;DHT22;487;50.126;8.698;2024-02-16T07:22:44;13.10;99.90
997;DHT22;487;50.126;8.698;2024-02-16T07:25:13;13.20;99.90
997;DHT22;487;50.126;8.698;2024-02-16T07:27:41;13.20;99.90
997;DHT22;487;50.126;8.698;2024-02-16T07:30:10;13.10;99.90
997;DHT22;487;50.126;8.698;2024-02-16T07:32:53;13.20;99.90
997;DHT22;487;50.126;8.698;2024-02-16T07:37:51;13.20;99.90
997;DHT22;487;50.126;8.698;2024-02-16T07:40:20;13.10;99.90
997;DHT22;487;50.126;8.698;2024-02-16T07:42:48;13.10;99.90
997;DHT22;487;50.126;8.698;2024-02-16T07:47:45;13.10;99.90
997;DHT22;487;50.126;8.698;2024-02-16T07:50:18;13.10;99.90
997;DHT22;487;50.126;8.698;2024-02-16T07:52:47;13.10;99.90
997;DHT22;487;50.126;8.698;2024-02-16T07:55:15;13.20;99.90
997;DHT22;487;50.126;8.698;2024-02-16T07:57:44;13.20;99.90
997;DHT22;487;50.126;8.698;2024-02-16T08:00:13;13.20;99.90
997;DHT22;487;50.126;8.698;2024-02-16T08:02:42;13.20;99.90
997;DHT22;487;50.126;8.698;2024-02-16T08:05:11;13.20;99.90
997;DHT22;487;50.126;8.698;2024-02-16T08:07:41;13.20;99.90
997;DHT22;487;50.126;8.698;2024-02-16T08:10:10;13.30;99.90
997;DHT22;487;50.126;8.698;2024-02-16T08:12:39;13.30;99.90
997;DHT22;487;50.126;8.698;2024-02-16T08:15:08;13.30;99.90
997;DHT22;487;50.126;8.698;2024-02-16T08:17:37;13.30;99.90
997;DHT22;487;50.126;8.698;2024-02-16T08:20:06;13.30;99.90
997;DHT22;487;50.126;8.698;2024-02-16T08:22:38;12.30;99.90
997;DHT22;487;50.126;8.698;2024-02-16T08:30:07;13.40;99.90
997;DHT22;487;50.126;8.698;2024-02-16T08:32:36;13.40;99.90
997;DHT22;487;50.126;8.698;2024-02-16T08:35:05;13.40;99.90
997;DHT22;487;50.126;8.698;2024-02-16T08:37:33;13.40;99.90
997;DHT22;487;50.126;8.698;2024-02-16T08:40:01;13.40;99.90
997;DHT22;487;50.126;8.698;2024-02-16T08:45:01;13.40;99.90
997;DHT22;487;50.126;8.698;2024-02-16T08:47:29;13.40;99.90
997;DHT22;487;50.126;8.698;2024-02-16T08:49:56;13.40;99.90
997;DHT22;487;50.126;8.698;2024-02-16T08:54:53;13.50;99.90
997;DHT22;487;50.126;8.698;2024-02-16T08:57:21;13.60;99.90
997;DHT22;487;50.126;8.698;2024-02-16T08:59:50;13.60;99.90
997;DHT22;487;50.126;8.698;2024-02-16T09:02:18;13.60;99.90
997;DHT22;487;50.126;8.698;2024-02-16T09:04:46;13.70;99.90
997;DHT22;487;50.126;8.698;2024-02-16T09:07:14;13.70;99.90
997;DHT22;487;50.126;8.698;2024-02-16T09:09:42;13.70;99.90
997;DHT22;487;50.126;8.698;2024-02-16T09:12:11;13.70;99.90
997;DHT22;487;50.126;8.698;2024-02-16T09:14:39;13.00;99.90
997;DHT22;487;50.126;8.698;2024-02-16T09:17:08;13.70;99.90
997;DHT22;487;50.126;8.698;2024-02-16T09:19:36;13.70;99.90
997;DHT22;487;50.126;8.698;2024-02-16T09:22:04;13.70;99.90
997;DHT22;487;50.126;8.698;2024-02-16T09:24:34;13.70;99.90
997;DHT22;487;50.126;8.698;2024-02-16T09:27:04;13.70;99.90
997;DHT22;487;50.126;8.698;2024-02-16T09:29:32;13.60;99.90
997;DHT22;487;50.126;8.698;2024-02-16T09:32:00;13.70;99.90
997;DHT22;487;50.126;8.698;2024-02-16T09:34:30;13.70;99.90
997;DHT22;487;50.126;8.698;2024-02-16T09:39:26;13.70;99.90
997;DHT22;487;50.126;8.698;2024-02-16T09:41:55;13.70;99.90
997;DHT22;487;50.126;8.698;2024-02-16T09:44:24;13.70;99.90
997;DHT22;487;50.126;8.698;2024-02-16T09:46:54;13.70;99.90
997;DHT22;487;50.126;8.698;2024-02-16T09:49:22;13.70;99.90
997;DHT22;487;50.126;8.698;2024-02-16T09:52:03;13.70;99.90
997;DHT22;487;50.126;8.698;2024-02-16T09:54:32;13.80;99.90
997;DHT22;487;50.126;8.698;2024-02-16T09:57:01;13.80;99.90
997;DHT22;487;50.126;8.698;2024-02-16T09:59:31;13.80;99.90
997;DHT22;487;50.126;8.698;2024-02-16T10:02:00;13.90;99.90
997;DHT22;487;50.126;8.698;2024-02-16T10:04:28;14.00;99.90
997;DHT22;487;50.126;8.698;2024-02-16T10:07:03;14.00;99.90
997;DHT22;487;50.126;8.698;2024-02-16T10:09:39;14.10;99.90
997;DHT22;487;50.126;8.698;2024-02-16T10:12:09;14.10;99.90
997;DHT22;487;50.126;8.698;2024-02-16T10:14:37;14.30;99.90
997;DHT22;487;50.126;8.698;2024-02-16T10:17:08;14.30;99.90
997;DHT22;487;50.126;8.698;2024-02-16T10:19:36;14.40;99.90
997;DHT22;487;50.126;8.698;2024-02-16T10:22:10;14.40;99.90
997;DHT22;487;50.126;8.698;2024-02-16T10:24:39;14.40;99.90
997;DHT22;487;50.126;8.698;2024-02-16T10:27:14;14.50;99.90
997;DHT22;487;50.126;8.698;2024-02-16T10:29:43;14.50;99.90
997;DHT22;487;50.126;8.698;2024-02-16T10:32:12;14.50;99.90
997;DHT22;487;50.126;8.698;2024-02-16T10:34:41;14.60;99.90
997;DHT22;487;50.126;8.698;2024-02-16T10:37:11;14.70;99.90
997;DHT22;487;50.126;8.698;2024-02-16T10:39:40;14.70;99.90
997;DHT22;487;50.126;8.698;2024-02-16T10:42:09;14.70;99.90
997;DHT22;487;50.126;8.698;2024-02-16T10:44:38;14.70;99.90
997;DHT22;487;50.126;8.698;2024-02-16T10:47:09;14.80;99.90
997;DHT22;487;50.126;8.698;2024-02-16T10:49:37;14.80;99.90
997;DHT22;487;50.126;8.698;2024-02-16T10:52:06;14.80;99.90
997;DHT22;487;50.126;8.698;2024-02-16T10:54:37;14.80;99.90
997;DHT22;487;50.126;8.698;2024-02-16T10:57:08;14.90;99.90
997;DHT22;487;50.126;8.698;2024-02-16T10:59:41;14.90;99.90
997;DHT22;487;50.126;8.698;2024-02-16T11:02:11;14.90;99.90
997;DHT22;487;50.126;8.698;2024-02-16T11:04:40;14.80;99.90
997;DHT22;487;50.126;8.698;2024-02-16T11:07:12;14.90;99.90
997;DHT22;487;50.126;8.698;2024-02-16T11:09:42;14.90;99.90
997;DHT22;487;50.126;8.698;2024-02-16T11:12:12;15.00;99.90
997;DHT22;487;50.126;8.698;2024-02-16T11:14:43;15.00;99.90
997;DHT22;487;50.126;8.698;2024-02-16T11:17:12;15.00;99.90
997;DHT22;487;50.126;8.698;2024-02-16T11:19:41;15.00;99.90
997;DHT22;487;50.126;8.698;2024-02-16T11:22:10;15.00;99.90
997;DHT22;487;50.126;8.698;2024-02-16T11:24:45;15.00;99.90
997;DHT22;487;50.126;8.698;2024-02-16T11:27:13;15.00;99.90
997;DHT22;487;50.126;8.698;2024-02-16T11:29:46;15.00;99.90
997;DHT22;487;50.126;8.698;2024-02-16T11:32:14;15.00;99.90
997;DHT22;487;50.126;8.698;2024-02-16T11:34:42;15.10;99.90
997;DHT22;487;50.126;8.698;2024-02-16T11:37:12;15.20;99.90
997;DHT22;487;50.126;8.698;2024-02-16T11:39:40;15.20;99.90
997;DHT22;487;50.126;8.698;2024-02-16T11:42:14;15.20;99.90
997;DHT22;487;50.126;8.698;2024-02-16T11:44:51;15.20;99.90
997;DHT22;487;50.126;8.698;2024-02-16T11:47:20;15.20;99.90
997;DHT22;487;50.126;8.698;2024-02-16T11:50:03;15.20;99.90
997;DHT22;487;50.126;8.698;2024-02-16T11:52:32;15.20;99.90
997;DHT22;487;50.126;8.698;2024-02-16T11:55:01;15.20;99.90
997;DHT22;487;50.126;8.698;2024-02-16T11:57:33;15.20;99.90
997;DHT22;487;50.126;8.698;2024-02-16T12:00:03;15.20;99.90
997;DHT22;487;50.126;8.698;2024-02-16T12:02:35;15.20;99.90
997;DHT22;487;50.126;8.698;2024-02-16T12:05:04;15.30;99.90
997;DHT22;487;50.126;8.698;2024-02-16T12:07:33;15.30;99.90
997;DHT22;487;50.126;8.698;2024-02-16T12:10:07;15.30;99.90
997;DHT22;487;50.126;8.698;2024-02-16T12:15:06;15.50;99.90
997;DHT22;487;50.126;8.698;2024-02-16T12:17:35;15.60;99.90
997;DHT22;487;50.126;8.698;2024-02-16T12:20:10;15.60;99.90
997;DHT22;487;50.126;8.698;2024-02-16T12:22:38;15.70;99.90
997;DHT22;487;50.126;8.698;2024-02-16T12:25:07;15.70;99.90
997;DHT22;487;50.126;8.698;2024-02-16T12:27:36;15.70;99.90
997;DHT22;487;50.126;8.698;2024-02-16T12:30:05;15.80;99.90
997;DHT22;487;50.126;8.698;2024-02-16T12:32:33;15.80;99.90
997;DHT22;487;50.126;8.698;2024-02-16T12:35:01;15.80;99.90
997;DHT22;487;50.126;8.698;2024-02-16T12:37:32;15.80;99.90
997;DHT22;487;50.126;8.698;2024-02-16T12:40:00;15.80;99.90
997;DHT22;487;50.126;8.698;2024-02-16T12:44:58;15.80;99.90
997;DHT22;487;50.126;8.698;2024-02-16T12:47:26;15.90;99.90
997;DHT22;487;50.126;8.698;2024-02-16T12:49:56;15.90;99.90
997;DHT22;487;50.126;8.698;2024-02-16T12:52:24;15.90;99.90
997;DHT22;487;50.126;8.698;2024-02-16T12:57:21;16.00;99.90
997;DHT22;487;50.126;8.698;2024-02-16T12:59:49;16.10;99.90
997;DHT22;487;50.126;8.698;2024-02-16T13:02:19;16.10;99.90
997;DHT22;487;50.126;8.698;2024-02-16T13:04:47;16.20;99.90
997;DHT22;487;50.126;8.698;2024-02-16T13:07:15;16.20;99.90
997;DHT22;487;50.126;8.698;2024-02-16T13:09:43;16.20;99.90
997;DHT22;487;50.126;8.698;2024-02-16T13:12:12;16.20;99.90
997;DHT22;487;50.126;8.698;2024-02-16T13:14:42;16.30;99.90
997;DHT22;487;50.126;8.698;2024-02-16T13:17:10;16.30;99.90
997;DHT22;487;50.126;8.698;2024-02-16T13:19:40;16.40;99.90
997;DHT22;487;50.126;8.698;2024-02-16T13:22:09;16.40;99.90
997;DHT22;487;50.126;8.698;2024-02-16T13:24:37;14.40;99.90
997;DHT22;487;50.126;8.698;2024-02-16T13:27:05;16.50;99.90
997;DHT22;487;50.126;8.698;2024-02-16T13:29:33;16.50;99.90
997;DHT22;487;50.126;8.698;2024-02-16T13:32:04;16.50;99.90
997;DHT22;487;50.126;8.698;2024-02-16T13:34:32;16.60;99.90
997;DHT22;487;50.126;8.698;2024-02-16T13:37:01;16.50;99.90
997;DHT22;487;50.126;8.698;2024-02-16T13:39:29;16.50;99.90
997;DHT22;487;50.126;8.698;2024-02-16T13:41:57;16.50;99.90
997;DHT22;487;50.126;8.698;2024-02-16T13:44:25;16.50;99.90
997;DHT22;487;50.126;8.698;2024-02-16T13:46:53;16.50;99.90
997;DHT22;487;50.126;8.698;2024-02-16T13:49:21;16.40;99.90
997;DHT22;487;50.126;8.698;2024-02-16T13:51:49;16.50;99.90
997;DHT22;487;50.126;8.698;2024-02-16T13:54:18;16.50;99.90
997;DHT22;487;50.126;8.698;2024-02-16T13:56:47;16.60;99.90
997;DHT22;487;50.126;8.698;2024-02-16T13:59:15;16.50;99.90
997;DHT22;487;50.126;8.698;2024-02-16T14:01:45;16.60;99.90
997;DHT22;487;50.126;8.698;2024-02-16T14:04:14;16.50;99.90
997;DHT22;487;50.126;8.698;2024-02-16T14:06:41;16.60;99.90
997;DHT22;487;50.126;8.698;2024-02-16T14:09:10;16.70;99.90
997;DHT22;487;50.126;8.698;2024-02-16T14:11:54;16.70;99.90
997;DHT22;487;50.126;8.698;2024-02-16T14:14:24;16.70;99.90
997;DHT22;487;50.126;8.698;2024-02-16T14:17:03;16.70;99.90
997;DHT22;487;50.126;8.698;2024-02-16T14:19:31;16.60;99.90
997;DHT22;487;50.126;8.698;2024-02-16T14:24:30;16.70;99.90
997;DHT22;487;50.126;8.698;2024-02-16T14:26:59;16.40;99.90
997;DHT22;487;50.126;8.698;2024-02-16T14:29:27;16.70;99.90
997;DHT22;487;50.126;8.698;2024-02-16T14:31:55;16.70;99.90
997;DHT22;487;50.126;8.698;2024-02-16T14:34:23;16.70;99.90
997;DHT22;487;50.126;8.698;2024-02-16T14:36:52;16.70;99.90
997;DHT22;487;50.126;8.698;2024-02-16T14:39:20;16.70;99.90
997;DHT22;487;50.126;8.698;2024-02-16T14:41:48;16.70;99.90
997;DHT22;487;50.126;8.698;2024-02-16T14:44:17;16.70;99.90
997;DHT22;487;50.126;8.698;2024-02-16T14:46:45;16.70;99.90
997;DHT22;487;50.126;8.698;2024-02-16T14:49:13;16.60;99.90
997;DHT22;487;50.126;8.698;2024-02-16T14:51:48;16.60;99.90
997;DHT22;487;50.126;8.698;2024-02-16T14:54:16;16.60;99.90
997;DHT22;487;50.126;8.698;2024-02-16T14:56:44;16.60;99.90
997;DHT22;487;50.126;8.698;2024-02-16T14:59:12;16.60;99.90
997;DHT22;487;50.126;8.698;2024-02-16T15:01:41;16.60;99.90
997;DHT22;487;50.126;8.698;2024-02-16T15:04:10;16.60;99.90
997;DHT22;487;50.126;8.698;2024-02-16T15:06:38;16.60;99.90
997;DHT22;487;50.126;8.698;2024-02-16T15:09:06;16.50;99.90
997;DHT22;487;50.126;8.698;2024-02-16T15:11:35;16.50;99.90
997;DHT22;487;50.126;8.698;2024-02-16T15:14:04;16.50;99.90
997;DHT22;487;50.126;8.698;2024-02-16T15:16:32;16.50;99.90
997;DHT22;487;50.126;8.698;2024-02-16T15:19:02;16.50;99.90
997;DHT22;487;50.126;8.698;2024-02-16T15:21:30;16.40;99.90
997;DHT22;487;50.126;8.698;2024-02-16T15:23:58;16.40;99.90
997;DHT22;487;50.126;8.698;2024-02-16T15:26:26;16.30;99.90
997;DHT22;487;50.126;8.698;2024-02-16T15:28:54;16.30;99.90
997;DHT22;487;50.126;8.698;2024-02-16T15:31:22;16.20;99.90
997;DHT22;487;50.126;8.698;2024-02-16T15:33:50;16.20;99.90
997;DHT22;487;50.126;8.698;2024-02-16T15:36:20;16.20;99.90
997;DHT22;487;50.126;8.698;2024-02-16T15:38:48;16.20;99.90
997;DHT22;487;50.126;8.698;2024-02-16T15:41:21;16.20;99.90
997;DHT22;487;50.126;8.698;2024-02-16T15:43:49;16.10;99.90
997;DHT22;487;50.126;8.698;2024-02-16T15:46:17;16.10;99.90
997;DHT22;487;50.126;8.698;2024-02-16T15:48:45;16.10;99.90
997;DHT22;487;50.126;8.698;2024-02-16T15:51:13;16.10;99.90
997;DHT22;487;50.126;8.698;2024-02-16T15:53:42;16.00;99.90
997;DHT22;487;50.126;8.698;2024-02-16T15:56:11;16.00;99.90
997;DHT22;487;50.126;8.698;2024-02-16T15:58:40;15.90;99.90
997;DHT22;487;50.126;8.698;2024-02-16T16:01:08;15.90;99.90
997;DHT22;487;50.126;8.698;2024-02-16T16:03:37;15.80;99.90
997;DHT22;487;50.126;8.698;2024-02-16T16:06:06;15.80;99.90
997;DHT22;487;50.126;8.698;2024-02-16T16:08:34;15.80;99.90
997;DHT22;487;50.126;8.698;2024-02-16T16:11:03;15.70;99.90
997;DHT22;487;50.126;8.698;2024-02-16T16:13:31;15.70;99.90
997;DHT22;487;50.126;8.698;2024-02-16T16:16:02;15.70;99.90
997;DHT22;487;50.126;8.698;2024-02-16T16:18:30;15.60;99.90
997;DHT22;487;50.126;8.698;2024-02-16T16:21:01;15.60;99.90
997;DHT22;487;50.126;8.698;2024-02-16T16:23:29;15.60;99.90
997;DHT22;487;50.126;8.698;2024-02-16T16:25:57;15.50;99.90
997;DHT22;487;50.126;8.698;2024-02-16T16:28:29;15.50;99.90
997;DHT22;487;50.126;8.698;2024-02-16T16:30:58;15.50;99.90
997;DHT22;487;50.126;8.698;2024-02-16T16:33:26;15.50;99.90
997;DHT22;487;50.126;8.698;2024-02-16T16:35:54;15.50;99.90
997;DHT22;487;50.126;8.698;2024-02-16T16:38:23;15.50;99.90
997;DHT22;487;50.126;8.698;2024-02-16T16:40:51;15.40;99.90
997;DHT22;487;50.126;8.698;2024-02-16T16:43:18;15.50;99.90
997;DHT22;487;50.126;8.698;2024-02-16T16:45:48;15.40;99.90
997;DHT22;487;50.126;8.698;2024-02-16T16:48:15;15.40;99.90
997;DHT22;487;50.126;8.698;2024-02-16T16:50:44;15.80;99.90
997;DHT22;487;50.126;8.698;2024-02-16T16:53:11;15.30;99.90
997;DHT22;487;50.126;8.698;2024-02-16T16:55:39;15.30;99.90
997;DHT22;487;50.126;8.698;2024-02-16T16:58:07;15.20;99.90
997;DHT22;487;50.126;8.698;2024-02-16T17:00:35;15.30;99.90
997;DHT22;487;50.126;8.698;2024-02-16T17:03:05;15.20;99.90
997;DHT22;487;50.126;8.698;2024-02-16T17:05:34;15.20;99.90
997;DHT22;487;50.126;8.698;2024-02-16T17:08:02;15.20;99.90
997;DHT22;487;50.126;8.698;2024-02-16T17:10:30;15.20;99.90
997;DHT22;487;50.126;8.698;2024-02-16T17:12:58;15.20;99.90
997;DHT22;487;50.126;8.698;2024-02-16T17:15:26;15.20;99.90
997;DHT22;487;50.126;8.698;2024-02-16T17:17:58;15.20;99.90
997;DHT22;487;50.126;8.698;2024-02-16T17:20:28;15.20;99.90
997;DHT22;487;50.126;8.698;2024-02-16T17:22:56;13.50;99.90
997;DHT22;487;50.126;8.698;2024-02-16T17:25:25;15.20;99.90
997;DHT22;487;50.126;8.698;2024-02-16T17:27:53;15.20;99.90
997;DHT22;487;50.126;8.698;2024-02-16T17:30:21;15.20;99.90
997;DHT22;487;50.126;8.698;2024-02-16T17:32:49;15.20;99.90
997;DHT22;487;50.126;8.698;2024-02-16T17:35:17;15.20;99.90
997;DHT22;487;50.126;8.698;2024-02-16T17:37:47;15.20;99.90